sensor_id;sensor_type;location;lat;lon;timestamp;P1;durP1;ratioP1;P2;durP2;ratioP2
76727;SDS011;65652;53.132;18.026;2024-01-15T00:01:46;10.10;;;5.00;;
76727;SDS011;65652;53.132;18.026;2024-01-15T00:04:13;11.40;;;5.10;;
76727;SDS011;65652;53.132;18.026;2024-01-15T00:06:40;11.80;;;4.50;;
76727;SDS011;65652;53.132;18.026;2024-01-15T00:09:06;11.40;;;5.30;;
76727;SDS011;65652;53.132;18.026;2024-01-15T00:11:35;9.30;;;3.90;;
76727;SDS011;65652;53.132;18.026;2024-01-15T00:14:02;10.10;;;4.40;;
76727;SDS011;65652;53.132;18.026;2024-01-15T00:16:29;10.50;;;4.30;;
76727;SDS011;65652;53.132;18.026;2024-01-15T00:18:56;12.10;;;5.40;;
76727;SDS011;65652;53.132;18.026;2024-01-15T00:21:23;10.80;;;4.40;;
76727;SDS011;65652;53.132;18.026;2024-01-15T00:23:50;8.70;;;3.70;;
76727;SDS011;65652;53.132;18.026;2024-01-15T00:26:17;10.50;;;4.60;;
76727;SDS011;65652;53.132;18.026;2024-01-15T00:28:44;9.40;;;4.90;;
76727;SDS011;65652;53.132;18.026;2024-01-15T00:31:12;10.90;;;4.40;;
76727;SDS011;65652;53.132;18.026;2024-01-15T00:33:39;10.40;;;4.70;;
76727;SDS011;65652;53.132;18.026;2024-01-15T00:36:05;8.80;;;4.00;;
76727;SDS011;65652;53.132;18.026;2024-01-15T00:38:33;13.00;;;5.80;;
76727;SDS011;65652;53.132;18.026;2024-01-15T00:41:00;12.20;;;5.80;;
76727;SDS011;65652;53.132;18.026;2024-01-15T00:43:28;11.80;;;4.70;;
76727;SDS011;65652;53.132;18.026;2024-01-15T00:45:55;13.70;;;5.90;;
76727;SDS011;65652;53.132;18.026;2024-01-15T00:48:22;11.90;;;5.00;;
76727;SDS011;65652;53.132;18.026;2024-01-15T00:50:49;13.20;;;5.50;;
76727;SDS011;65652;53.132;18.026;2024-01-15T00:53:16;9.70;;;3.80;;
76727;SDS011;65652;53.132;18.026;2024-01-15T00:55:43;13.40;;;5.50;;
76727;SDS011;65652;53.132;18.026;2024-01-15T00:58:10;10.60;;;4.90;;
76727;SDS011;65652;53.132;18.026;2024-01-15T01:00:37;11.10;;;5.10;;
76727;SDS011;65652;53.132;18.026;2024-01-15T01:03:04;11.60;;;5.10;;
76727;SDS011;65652;53.132;18.026;2024-01-15T01:05:33;9.60;;;4.30;;
76727;SDS011;65652;53.132;18.026;2024-01-15T01:08:00;9.40;;;3.20;;
76727;SDS011;65652;53.132;18.026;2024-01-15T01:10:28;10.10;;;4.70;;
76727;SDS011;65652;53.132;18.026;2024-01-15T01:12:54;10.40;;;4.80;;
76727;SDS011;65652;53.132;18.026;2024-01-15T01:15:22;10.70;;;4.40;;
76727;SDS011;65652;53.132;18.026;2024-01-15T01:17:49;9.80;;;4.60;;
76727;SDS011;65652;53.132;18.026;2024-01-15T01:20:16;12.40;;;6.00;;
76727;SDS011;65652;53.132;18.026;2024-01-15T01:22:43;12.70;;;5.60;;
76727;SDS011;65652;53.132;18.026;2024-01-15T01:25:10;10.60;;;4.70;;
76727;SDS011;65652;53.132;18.026;2024-01-15T01:27:37;11.30;;;4.60;;
76727;SDS011;65652;53.132;18.026;2024-01-15T01:30:04;9.00;;;3.90;;
76727;SDS011;65652;53.132;18.026;2024-01-15T01:32:32;10.00;;;4.30;;
76727;SDS011;65652;53.132;18.026;2024-01-15T01:34:59;11.30;;;5.50;;
76727;SDS011;65652;53.132;18.026;2024-01-15T01:37:26;11.70;;;5.10;;
76727;SDS011;65652;53.132;18.026;2024-01-15T01:39:53;10.00;;;4.10;;
76727;SDS011;65652;53.132;18.026;2024-01-15T01:42:20;10.70;;;5.20;;
76727;SDS011;65652;53.132;18.026;2024-01-15T01:44:47;8.50;;;3.70;;
76727;SDS011;65652;53.132;18.026;2024-01-15T01:47:14;9.00;;;4.20;;
76727;SDS011;65652;53.132;18.026;2024-01-15T01:49:42;9.50;;;4.00;;
76727;SDS011;65652;53.132;18.026;2024-01-15T01:52:09;10.30;;;4.00;;
76727;SDS011;65652;53.132;18.026;2024-01-15T01:54:37;10.60;;;3.90;;
76727;SDS011;65652;53.132;18.026;2024-01-15T01:57:06;7.70;;;3.10;;
76727;SDS011;65652;53.132;18.026;2024-01-15T01:59:35;11.20;;;4.80;;
76727;SDS011;65652;53.132;18.026;2024-01-15T02:02:02;9.20;;;3.70;;
76727;SDS011;65652;53.132;18.026;2024-01-15T02:04:31;7.50;;;3.10;;
76727;SDS011;65652;53.132;18.026;2024-01-15T02:06:59;7.90;;;3.50;;
76727;SDS011;65652;53.132;18.026;2024-01-15T02:09:26;9.30;;;4.10;;
76727;SDS011;65652;53.132;18.026;2024-01-15T02:11:53;10.80;;;4.80;;
76727;SDS011;65652;53.132;18.026;2024-01-15T02:14:20;8.60;;;3.80;;
76727;SDS011;65652;53.132;18.026;2024-01-15T02:16:48;10.40;;;4.20;;
76727;SDS011;65652;53.132;18.026;2024-01-15T02:19:15;9.50;;;3.90;;
76727;SDS011;65652;53.132;18.026;2024-01-15T02:21:46;8.70;;;3.90;;
76727;SDS011;65652;53.132;18.026;2024-01-15T02:24:13;7.40;;;3.10;;
76727;SDS011;65652;53.132;18.026;2024-01-15T02:26:40;10.60;;;4.10;;
76727;SDS011;65652;53.132;18.026;2024-01-15T02:29:08;9.90;;;4.40;;
76727;SDS011;65652;53.132;18.026;2024-01-15T02:31:36;7.20;;;2.60;;
76727;SDS011;65652;53.132;18.026;2024-01-15T02:34:03;8.30;;;3.00;;
76727;SDS011;65652;53.132;18.026;2024-01-15T02:36:30;8.30;;;3.60;;
76727;SDS011;65652;53.132;18.026;2024-01-15T02:38:57;9.00;;;3.50;;
76727;SDS011;65652;53.132;18.026;2024-01-15T02:41:24;8.80;;;3.90;;
76727;SDS011;65652;53.132;18.026;2024-01-15T02:43:51;9.90;;;4.40;;
76727;SDS011;65652;53.132;18.026;2024-01-15T02:46:18;8.90;;;3.60;;
76727;SDS011;65652;53.132;18.026;2024-01-15T02:48:45;9.60;;;3.90;;
76727;SDS011;65652;53.132;18.026;2024-01-15T02:51:13;9.30;;;4.10;;
76727;SDS011;65652;53.132;18.026;2024-01-15T02:53:40;7.70;;;3.20;;
76727;SDS011;65652;53.132;18.026;2024-01-15T02:56:07;8.00;;;2.90;;
76727;SDS011;65652;53.132;18.026;2024-01-15T02:58:34;8.00;;;3.20;;
76727;SDS011;65652;53.132;18.026;2024-01-15T03:01:01;8.40;;;3.10;;
76727;SDS011;65652;53.132;18.026;2024-01-15T03:03:29;9.40;;;3.70;;
76727;SDS011;65652;53.132;18.026;2024-01-15T03:05:55;8.80;;;4.10;;
76727;SDS011;65652;53.132;18.026;2024-01-15T03:08:22;12.90;;;4.80;;
76727;SDS011;65652;53.132;18.026;2024-01-15T03:10:49;9.10;;;3.80;;
76727;SDS011;65652;53.132;18.026;2024-01-15T03:13:16;10.40;;;4.70;;
76727;SDS011;65652;53.132;18.026;2024-01-15T03:15:45;12.80;;;5.40;;
76727;SDS011;65652;53.132;18.026;2024-01-15T03:18:12;8.60;;;3.50;;
76727;SDS011;65652;53.132;18.026;2024-01-15T03:20:39;11.30;;;4.50;;
76727;SDS011;65652;53.132;18.026;2024-01-15T03:23:06;7.30;;;3.60;;
76727;SDS011;65652;53.132;18.026;2024-01-15T03:25:33;10.80;;;4.60;;
76727;SDS011;65652;53.132;18.026;2024-01-15T03:28:00;12.30;;;4.70;;
76727;SDS011;65652;53.132;18.026;2024-01-15T03:30:27;14.80;;;5.70;;
76727;SDS011;65652;53.132;18.026;2024-01-15T03:32:53;13.30;;;5.20;;
76727;SDS011;65652;53.132;18.026;2024-01-15T03:35:20;14.10;;;5.80;;
76727;SDS011;65652;53.132;18.026;2024-01-15T03:37:47;11.50;;;4.60;;
76727;SDS011;65652;53.132;18.026;2024-01-15T03:40:14;12.20;;;4.90;;
76727;SDS011;65652;53.132;18.026;2024-01-15T03:42:41;11.10;;;5.00;;
76727;SDS011;65652;53.132;18.026;2024-01-15T03:45:08;13.30;;;5.20;;
76727;SDS011;65652;53.132;18.026;2024-01-15T03:47:35;14.50;;;5.70;;
76727;SDS011;65652;53.132;18.026;2024-01-15T03:50:02;14.90;;;6.10;;
76727;SDS011;65652;53.132;18.026;2024-01-15T03:52:29;11.60;;;4.60;;
76727;SDS011;65652;53.132;18.026;2024-01-15T03:54:56;11.70;;;4.40;;
76727;SDS011;65652;53.132;18.026;2024-01-15T03:57:23;10.20;;;3.80;;
76727;SDS011;65652;53.132;18.026;2024-01-15T03:59:50;11.60;;;4.70;;
76727;SDS011;65652;53.132;18.026;2024-01-15T04:02:17;7.50;;;3.20;;
76727;SDS011;65652;53.132;18.026;2024-01-15T04:04:44;9.70;;;3.80;;
76727;SDS011;65652;53.132;18.026;2024-01-15T04:07:11;13.20;;;4.90;;
76727;SDS011;65652;53.132;18.026;2024-01-15T04:09:38;15.30;;;6.40;;
76727;SDS011;65652;53.132;18.026;2024-01-15T04:12:06;14.20;;;6.00;;
76727;SDS011;65652;53.132;18.026;2024-01-15T04:14:33;13.60;;;5.70;;
76727;SDS011;65652;53.132;18.026;2024-01-15T04:16:59;10.80;;;4.50;;
76727;SDS011;65652;53.132;18.026;2024-01-15T04:19:27;13.60;;;5.40;;
76727;SDS011;65652;53.132;18.026;2024-01-15T04:21:54;10.50;;;4.50;;
76727;SDS011;65652;53.132;18.026;2024-01-15T04:24:24;8.40;;;3.00;;
76727;SDS011;65652;53.132;18.026;2024-01-15T04:26:51;9.50;;;3.70;;
76727;SDS011;65652;53.132;18.026;2024-01-15T04:29:17;9.50;;;4.20;;
76727;SDS011;65652;53.132;18.026;2024-01-15T04:31:44;10.30;;;4.30;;
76727;SDS011;65652;53.132;18.026;2024-01-15T04:34:11;5.70;;;2.30;;
76727;SDS011;65652;53.132;18.026;2024-01-15T04:36:38;9.00;;;3.40;;
76727;SDS011;65652;53.132;18.026;2024-01-15T04:39:07;6.30;;;1.90;;
76727;SDS011;65652;53.132;18.026;2024-01-15T04:41:34;8.60;;;2.80;;
76727;SDS011;65652;53.132;18.026;2024-01-15T04:44:01;7.60;;;2.70;;
76727;SDS011;65652;53.132;18.026;2024-01-15T04:46:27;8.40;;;2.50;;
76727;SDS011;65652;53.132;18.026;2024-01-15T04:48:54;7.00;;;2.50;;
76727;SDS011;65652;53.132;18.026;2024-01-15T04:51:21;5.90;;;2.20;;
76727;SDS011;65652;53.132;18.026;2024-01-15T04:53:48;6.90;;;2.60;;
76727;SDS011;65652;53.132;18.026;2024-01-15T04:56:15;6.40;;;2.50;;
76727;SDS011;65652;53.132;18.026;2024-01-15T04:58:42;6.60;;;2.30;;
76727;SDS011;65652;53.132;18.026;2024-01-15T05:01:08;5.20;;;2.00;;
76727;SDS011;65652;53.132;18.026;2024-01-15T05:03:36;5.90;;;2.30;;
76727;SDS011;65652;53.132;18.026;2024-01-15T05:06:03;6.60;;;3.00;;
76727;SDS011;65652;53.132;18.026;2024-01-15T05:08:30;9.40;;;2.70;;
76727;SDS011;65652;53.132;18.026;2024-01-15T05:10:57;8.70;;;2.70;;
76727;SDS011;65652;53.132;18.026;2024-01-15T05:13:23;6.90;;;2.60;;
76727;SDS011;65652;53.132;18.026;2024-01-15T05:15:50;7.80;;;2.30;;
76727;SDS011;65652;53.132;18.026;2024-01-15T05:18:17;9.00;;;2.60;;
76727;SDS011;65652;53.132;18.026;2024-01-15T05:20:44;7.90;;;2.40;;
76727;SDS011;65652;53.132;18.026;2024-01-15T05:23:11;5.40;;;1.90;;
76727;SDS011;65652;53.132;18.026;2024-01-15T05:25:38;6.30;;;1.30;;
76727;SDS011;65652;53.132;18.026;2024-01-15T05:28:05;6.50;;;1.60;;
76727;SDS011;65652;53.132;18.026;2024-01-15T05:30:32;6.20;;;2.00;;
76727;SDS011;65652;53.132;18.026;2024-01-15T05:32:59;6.70;;;1.40;;
76727;SDS011;65652;53.132;18.026;2024-01-15T05:35:26;5.20;;;1.40;;
76727;SDS011;65652;53.132;18.026;2024-01-15T05:37:53;5.00;;;1.40;;
76727;SDS011;65652;53.132;18.026;2024-01-15T05:40:20;7.90;;;1.70;;
76727;SDS011;65652;53.132;18.026;2024-01-15T05:42:47;6.60;;;2.00;;
76727;SDS011;65652;53.132;18.026;2024-01-15T05:45:14;7.50;;;1.80;;
76727;SDS011;65652;53.132;18.026;2024-01-15T05:47:40;4.30;;;1.00;;
76727;SDS011;65652;53.132;18.026;2024-01-15T05:50:08;5.00;;;1.30;;
76727;SDS011;65652;53.132;18.026;2024-01-15T05:52:35;6.00;;;1.00;;
76727;SDS011;65652;53.132;18.026;2024-01-15T05:55:03;6.10;;;0.90;;
76727;SDS011;65652;53.132;18.026;2024-01-15T05:57:30;4.30;;;0.90;;
76727;SDS011;65652;53.132;18.026;2024-01-15T05:59:58;4.90;;;1.20;;
76727;SDS011;65652;53.132;18.026;2024-01-15T06:02:25;9.00;;;1.80;;
76727;SDS011;65652;53.132;18.026;2024-01-15T06:04:51;4.00;;;1.30;;
76727;SDS011;65652;53.132;18.026;2024-01-15T06:07:18;5.00;;;1.40;;
76727;SDS011;65652;53.132;18.026;2024-01-15T06:09:45;4.10;;;1.10;;
76727;SDS011;65652;53.132;18.026;2024-01-15T06:12:12;4.80;;;1.40;;
76727;SDS011;65652;53.132;18.026;2024-01-15T06:14:39;6.70;;;1.40;;
76727;SDS011;65652;53.132;18.026;2024-01-15T06:17:06;4.40;;;1.30;;
76727;SDS011;65652;53.132;18.026;2024-01-15T06:19:32;5.30;;;1.50;;
76727;SDS011;65652;53.132;18.026;2024-01-15T06:21:59;4.70;;;1.10;;
76727;SDS011;65652;53.132;18.026;2024-01-15T06:24:26;6.90;;;1.90;;
76727;SDS011;65652;53.132;18.026;2024-01-15T06:26:53;5.60;;;1.70;;
76727;SDS011;65652;53.132;18.026;2024-01-15T06:29:19;7.00;;;2.00;;
76727;SDS011;65652;53.132;18.026;2024-01-15T06:31:46;6.60;;;1.70;;
76727;SDS011;65652;53.132;18.026;2024-01-15T06:34:14;6.60;;;2.10;;
76727;SDS011;65652;53.132;18.026;2024-01-15T06:36:41;7.90;;;2.30;;
76727;SDS011;65652;53.132;18.026;2024-01-15T06:39:08;6.00;;;2.10;;
76727;SDS011;65652;53.132;18.026;2024-01-15T06:41:36;9.30;;;2.00;;
76727;SDS011;65652;53.132;18.026;2024-01-15T06:44:10;4.20;;;1.20;;
76727;SDS011;65652;53.132;18.026;2024-01-15T06:46:43;7.90;;;2.50;;
76727;SDS011;65652;53.132;18.026;2024-01-15T06:49:10;6.10;;;1.70;;
76727;SDS011;65652;53.132;18.026;2024-01-15T06:51:37;6.40;;;1.90;;
76727;SDS011;65652;53.132;18.026;2024-01-15T06:54:04;8.10;;;2.30;;
76727;SDS011;65652;53.132;18.026;2024-01-15T06:56:32;8.40;;;2.40;;
76727;SDS011;65652;53.132;18.026;2024-01-15T06:58:58;7.80;;;2.10;;
76727;SDS011;65652;53.132;18.026;2024-01-15T07:01:25;6.10;;;1.60;;
76727;SDS011;65652;53.132;18.026;2024-01-15T07:03:52;7.60;;;2.60;;
76727;SDS011;65652;53.132;18.026;2024-01-15T07:06:19;10.20;;;2.80;;
76727;SDS011;65652;53.132;18.026;2024-01-15T07:08:46;6.80;;;2.20;;
76727;SDS011;65652;53.132;18.026;2024-01-15T07:11:12;6.90;;;2.60;;
76727;SDS011;65652;53.132;18.026;2024-01-15T07:13:39;9.10;;;3.10;;
76727;SDS011;65652;53.132;18.026;2024-01-15T07:16:06;9.30;;;2.70;;
76727;SDS011;65652;53.132;18.026;2024-01-15T07:18:33;9.30;;;2.60;;
76727;SDS011;65652;53.132;18.026;2024-01-15T07:21:00;8.90;;;3.30;;
76727;SDS011;65652;53.132;18.026;2024-01-15T07:23:29;7.80;;;3.20;;
76727;SDS011;65652;53.132;18.026;2024-01-15T07:25:57;8.50;;;2.80;;
76727;SDS011;65652;53.132;18.026;2024-01-15T07:28:24;10.30;;;3.30;;
76727;SDS011;65652;53.132;18.026;2024-01-15T07:30:51;7.60;;;2.90;;
76727;SDS011;65652;53.132;18.026;2024-01-15T07:33:18;7.30;;;2.60;;
76727;SDS011;65652;53.132;18.026;2024-01-15T07:35:45;9.20;;;3.20;;
76727;SDS011;65652;53.132;18.026;2024-01-15T07:38:12;8.30;;;2.70;;
76727;SDS011;65652;53.132;18.026;2024-01-15T07:40:39;10.90;;;3.10;;
76727;SDS011;65652;53.132;18.026;2024-01-15T07:43:06;7.20;;;2.90;;
76727;SDS011;65652;53.132;18.026;2024-01-15T07:45:32;8.80;;;3.30;;
76727;SDS011;65652;53.132;18.026;2024-01-15T07:47:59;9.30;;;3.20;;
76727;SDS011;65652;53.132;18.026;2024-01-15T07:50:26;8.70;;;2.60;;
76727;SDS011;65652;53.132;18.026;2024-01-15T07:52:53;9.90;;;3.50;;
76727;SDS011;65652;53.132;18.026;2024-01-15T07:55:20;8.90;;;2.80;;
76727;SDS011;65652;53.132;18.026;2024-01-15T07:57:47;10.70;;;3.00;;
76727;SDS011;65652;53.132;18.026;2024-01-15T08:00:14;9.90;;;3.00;;
76727;SDS011;65652;53.132;18.026;2024-01-15T08:02:41;8.00;;;2.80;;
76727;SDS011;65652;53.132;18.026;2024-01-15T08:05:08;10.20;;;3.10;;
76727;SDS011;65652;53.132;18.026;2024-01-15T08:07:35;7.60;;;2.80;;
76727;SDS011;65652;53.132;18.026;2024-01-15T08:10:02;7.60;;;3.30;;
76727;SDS011;65652;53.132;18.026;2024-01-15T08:12:29;8.10;;;2.20;;
76727;SDS011;65652;53.132;18.026;2024-01-15T08:14:56;7.10;;;2.60;;
76727;SDS011;65652;53.132;18.026;2024-01-15T08:17:23;9.10;;;3.00;;
76727;SDS011;65652;53.132;18.026;2024-01-15T08:19:54;11.40;;;3.60;;
76727;SDS011;65652;53.132;18.026;2024-01-15T08:22:21;12.10;;;3.40;;
76727;SDS011;65652;53.132;18.026;2024-01-15T08:24:48;6.90;;;3.00;;
76727;SDS011;65652;53.132;18.026;2024-01-15T08:27:15;8.60;;;2.70;;
76727;SDS011;65652;53.132;18.026;2024-01-15T08:29:41;9.20;;;2.60;;
76727;SDS011;65652;53.132;18.026;2024-01-15T08:32:08;10.00;;;3.30;;
76727;SDS011;65652;53.132;18.026;2024-01-15T08:34:40;12.40;;;3.50;;
76727;SDS011;65652;53.132;18.026;2024-01-15T08:37:07;11.60;;;3.60;;
76727;SDS011;65652;53.132;18.026;2024-01-15T08:39:34;13.40;;;3.90;;
76727;SDS011;65652;53.132;18.026;2024-01-15T08:42:00;7.10;;;2.40;;
76727;SDS011;65652;53.132;18.026;2024-01-15T08:44:27;6.20;;;2.00;;
76727;SDS011;65652;53.132;18.026;2024-01-15T08:46:54;7.50;;;2.50;;
76727;SDS011;65652;53.132;18.026;2024-01-15T08:49:21;7.80;;;2.60;;
76727;SDS011;65652;53.132;18.026;2024-01-15T08:51:48;7.90;;;2.90;;
76727;SDS011;65652;53.132;18.026;2024-01-15T08:54:15;9.20;;;3.20;;
76727;SDS011;65652;53.132;18.026;2024-01-15T08:56:41;8.00;;;2.80;;
76727;SDS011;65652;53.132;18.026;2024-01-15T08:59:08;8.50;;;2.60;;
76727;SDS011;65652;53.132;18.026;2024-01-15T09:01:35;7.40;;;3.20;;
76727;SDS011;65652;53.132;18.026;2024-01-15T09:04:02;9.50;;;2.60;;
76727;SDS011;65652;53.132;18.026;2024-01-15T09:06:29;8.50;;;2.50;;
76727;SDS011;65652;53.132;18.026;2024-01-15T09:08:56;8.10;;;2.70;;
76727;SDS011;65652;53.132;18.026;2024-01-15T09:11:23;7.80;;;2.50;;
76727;SDS011;65652;53.132;18.026;2024-01-15T09:13:51;8.90;;;2.70;;
76727;SDS011;65652;53.132;18.026;2024-01-15T09:16:18;11.40;;;3.10;;
76727;SDS011;65652;53.132;18.026;2024-01-15T09:18:45;8.00;;;2.50;;
76727;SDS011;65652;53.132;18.026;2024-01-15T09:21:13;9.00;;;3.40;;
76727;SDS011;65652;53.132;18.026;2024-01-15T09:23:40;11.50;;;3.50;;
76727;SDS011;65652;53.132;18.026;2024-01-15T09:26:07;7.90;;;2.70;;
76727;SDS011;65652;53.132;18.026;2024-01-15T09:28:35;8.40;;;2.60;;
76727;SDS011;65652;53.132;18.026;2024-01-15T09:31:02;6.90;;;2.10;;
76727;SDS011;65652;53.132;18.026;2024-01-15T09:33:29;7.50;;;2.70;;
76727;SDS011;65652;53.132;18.026;2024-01-15T09:35:56;7.60;;;2.50;;
76727;SDS011;65652;53.132;18.026;2024-01-15T09:38:23;10.00;;;3.30;;
76727;SDS011;65652;53.132;18.026;2024-01-15T09:40:50;9.40;;;3.10;;
76727;SDS011;65652;53.132;18.026;2024-01-15T09:43:17;10.10;;;3.10;;
76727;SDS011;65652;53.132;18.026;2024-01-15T09:45:44;9.10;;;3.40;;
76727;SDS011;65652;53.132;18.026;2024-01-15T09:48:11;9.90;;;3.10;;
76727;SDS011;65652;53.132;18.026;2024-01-15T09:50:39;11.50;;;3.60;;
76727;SDS011;65652;53.132;18.026;2024-01-15T09:53:05;8.90;;;2.70;;
76727;SDS011;65652;53.132;18.026;2024-01-15T09:55:32;8.90;;;2.70;;
76727;SDS011;65652;53.132;18.026;2024-01-15T09:58:00;8.00;;;2.40;;
76727;SDS011;65652;53.132;18.026;2024-01-15T10:00:28;7.90;;;2.40;;
76727;SDS011;65652;53.132;18.026;2024-01-15T10:02:56;9.10;;;3.10;;
76727;SDS011;65652;53.132;18.026;2024-01-15T10:05:23;9.70;;;3.50;;
76727;SDS011;65652;53.132;18.026;2024-01-15T10:07:50;7.90;;;2.60;;
76727;SDS011;65652;53.132;18.026;2024-01-15T10:10:19;8.50;;;2.90;;
76727;SDS011;65652;53.132;18.026;2024-01-15T10:12:48;6.30;;;2.10;;
76727;SDS011;65652;53.132;18.026;2024-01-15T10:15:15;7.60;;;2.00;;
76727;SDS011;65652;53.132;18.026;2024-01-15T10:17:43;8.90;;;2.80;;
76727;SDS011;65652;53.132;18.026;2024-01-15T10:20:11;9.40;;;3.10;;
76727;SDS011;65652;53.132;18.026;2024-01-15T10:22:40;7.30;;;2.40;;
76727;SDS011;65652;53.132;18.026;2024-01-15T10:25:15;6.10;;;2.20;;
76727;SDS011;65652;53.132;18.026;2024-01-15T10:27:42;10.20;;;2.10;;
76727;SDS011;65652;53.132;18.026;2024-01-15T10:30:10;6.20;;;2.20;;
76727;SDS011;65652;53.132;18.026;2024-01-15T10:32:38;6.90;;;1.60;;
76727;SDS011;65652;53.132;18.026;2024-01-15T10:35:06;7.00;;;2.00;;
76727;SDS011;65652;53.132;18.026;2024-01-15T10:37:34;5.30;;;1.60;;
76727;SDS011;65652;53.132;18.026;2024-01-15T10:40:01;7.40;;;1.50;;
76727;SDS011;65652;53.132;18.026;2024-01-15T10:42:31;5.80;;;1.40;;
76727;SDS011;65652;53.132;18.026;2024-01-15T10:44:59;4.10;;;1.50;;
76727;SDS011;65652;53.132;18.026;2024-01-15T10:47:26;8.20;;;1.60;;
76727;SDS011;65652;53.132;18.026;2024-01-15T10:49:53;5.40;;;1.60;;
76727;SDS011;65652;53.132;18.026;2024-01-15T10:52:20;6.40;;;1.80;;
76727;SDS011;65652;53.132;18.026;2024-01-15T10:57:15;5.80;;;1.70;;
76727;SDS011;65652;53.132;18.026;2024-01-15T10:59:42;7.40;;;2.00;;
76727;SDS011;65652;53.132;18.026;2024-01-15T11:02:09;6.00;;;2.00;;
76727;SDS011;65652;53.132;18.026;2024-01-15T11:04:36;4.70;;;1.60;;
76727;SDS011;65652;53.132;18.026;2024-01-15T11:07:03;7.70;;;2.10;;
76727;SDS011;65652;53.132;18.026;2024-01-15T11:09:31;6.70;;;2.20;;
76727;SDS011;65652;53.132;18.026;2024-01-15T11:12:09;5.40;;;1.20;;
76727;SDS011;65652;53.132;18.026;2024-01-15T11:14:38;5.50;;;1.40;;
76727;SDS011;65652;53.132;18.026;2024-01-15T11:19:43;7.00;;;1.90;;
76727;SDS011;65652;53.132;18.026;2024-01-15T11:24:57;6.30;;;2.70;;
76727;SDS011;65652;53.132;18.026;2024-01-15T11:27:43;7.50;;;2.70;;
76727;SDS011;65652;53.132;18.026;2024-01-15T11:32:49;5.40;;;1.70;;
76727;SDS011;65652;53.132;18.026;2024-01-15T11:35:16;8.70;;;3.50;;
76727;SDS011;65652;53.132;18.026;2024-01-15T11:40:19;11.30;;;3.20;;
76727;SDS011;65652;53.132;18.026;2024-01-15T11:42:47;10.20;;;3.20;;
76727;SDS011;65652;53.132;18.026;2024-01-15T11:45:19;8.50;;;2.80;;
76727;SDS011;65652;53.132;18.026;2024-01-15T11:50:25;5.60;;;2.00;;
76727;SDS011;65652;53.132;18.026;2024-01-15T11:52:58;6.90;;;1.80;;
76727;SDS011;65652;53.132;18.026;2024-01-15T11:55:33;7.50;;;1.80;;
76727;SDS011;65652;53.132;18.026;2024-01-15T11:58:02;5.50;;;1.40;;
76727;SDS011;65652;53.132;18.026;2024-01-15T12:00:34;5.40;;;1.00;;
76727;SDS011;65652;53.132;18.026;2024-01-15T12:03:05;3.60;;;0.90;;
76727;SDS011;65652;53.132;18.026;2024-01-15T12:05:32;4.50;;;1.20;;
76727;SDS011;65652;53.132;18.026;2024-01-15T12:07:58;4.20;;;1.20;;
76727;SDS011;65652;53.132;18.026;2024-01-15T12:10:25;5.90;;;1.40;;
76727;SDS011;65652;53.132;18.026;2024-01-15T12:15:33;5.00;;;0.90;;
76727;SDS011;65652;53.132;18.026;2024-01-15T12:18:01;4.70;;;1.40;;
76727;SDS011;65652;53.132;18.026;2024-01-15T12:22:56;5.00;;;1.30;;
76727;SDS011;65652;53.132;18.026;2024-01-15T12:25:24;3.90;;;1.20;;
76727;SDS011;65652;53.132;18.026;2024-01-15T12:27:53;3.40;;;0.80;;
76727;SDS011;65652;53.132;18.026;2024-01-15T12:30:20;4.10;;;1.20;;
76727;SDS011;65652;53.132;18.026;2024-01-15T12:32:48;4.20;;;1.10;;
76727;SDS011;65652;53.132;18.026;2024-01-15T12:35:15;4.30;;;1.20;;
76727;SDS011;65652;53.132;18.026;2024-01-15T12:37:42;6.00;;;1.40;;
76727;SDS011;65652;53.132;18.026;2024-01-15T12:40:10;6.30;;;1.70;;
76727;SDS011;65652;53.132;18.026;2024-01-15T12:42:41;5.60;;;1.70;;
76727;SDS011;65652;53.132;18.026;2024-01-15T12:45:09;8.00;;;2.00;;
76727;SDS011;65652;53.132;18.026;2024-01-15T12:47:38;7.50;;;2.40;;
76727;SDS011;65652;53.132;18.026;2024-01-15T12:50:06;10.20;;;3.20;;
76727;SDS011;65652;53.132;18.026;2024-01-15T12:52:34;4.50;;;1.20;;
76727;SDS011;65652;53.132;18.026;2024-01-15T12:55:01;4.90;;;1.40;;
76727;SDS011;65652;53.132;18.026;2024-01-15T12:57:28;4.80;;;1.10;;
76727;SDS011;65652;53.132;18.026;2024-01-15T12:59:55;4.40;;;1.30;;
76727;SDS011;65652;53.132;18.026;2024-01-15T13:02:22;4.00;;;1.00;;
76727;SDS011;65652;53.132;18.026;2024-01-15T13:04:49;4.60;;;1.30;;
76727;SDS011;65652;53.132;18.026;2024-01-15T13:07:16;4.20;;;1.00;;
76727;SDS011;65652;53.132;18.026;2024-01-15T13:09:43;5.30;;;1.10;;
76727;SDS011;65652;53.132;18.026;2024-01-15T13:12:10;4.80;;;1.20;;
76727;SDS011;65652;53.132;18.026;2024-01-15T13:17:07;5.50;;;1.20;;
76727;SDS011;65652;53.132;18.026;2024-01-15T13:19:34;7.80;;;1.70;;
76727;SDS011;65652;53.132;18.026;2024-01-15T13:22:00;7.00;;;1.50;;
76727;SDS011;65652;53.132;18.026;2024-01-15T13:24:28;4.00;;;0.90;;
76727;SDS011;65652;53.132;18.026;2024-01-15T13:26:54;4.30;;;0.80;;
76727;SDS011;65652;53.132;18.026;2024-01-15T13:29:21;3.70;;;1.10;;
76727;SDS011;65652;53.132;18.026;2024-01-15T13:31:48;2.70;;;0.70;;
76727;SDS011;65652;53.132;18.026;2024-01-15T13:34:15;5.50;;;1.40;;
76727;SDS011;65652;53.132;18.026;2024-01-15T13:36:42;4.20;;;1.10;;
76727;SDS011;65652;53.132;18.026;2024-01-15T13:39:09;4.90;;;1.20;;
76727;SDS011;65652;53.132;18.026;2024-01-15T13:41:36;7.40;;;2.10;;
76727;SDS011;65652;53.132;18.026;2024-01-15T13:44:03;6.00;;;1.40;;
76727;SDS011;65652;53.132;18.026;2024-01-15T13:46:30;5.90;;;1.50;;
76727;SDS011;65652;53.132;18.026;2024-01-15T13:48:57;7.20;;;2.20;;
76727;SDS011;65652;53.132;18.026;2024-01-15T13:51:23;8.10;;;2.10;;
76727;SDS011;65652;53.132;18.026;2024-01-15T13:53:51;6.80;;;1.50;;
76727;SDS011;65652;53.132;18.026;2024-01-15T13:56:18;16.00;;;5.50;;
76727;SDS011;65652;53.132;18.026;2024-01-15T13:58:45;9.00;;;2.10;;
76727;SDS011;65652;53.132;18.026;2024-01-15T14:01:12;5.60;;;2.10;;
76727;SDS011;65652;53.132;18.026;2024-01-15T14:03:39;12.80;;;3.50;;
76727;SDS011;65652;53.132;18.026;2024-01-15T14:06:05;8.50;;;2.50;;
76727;SDS011;65652;53.132;18.026;2024-01-15T14:08:35;6.80;;;2.20;;
76727;SDS011;65652;53.132;18.026;2024-01-15T14:11:05;7.20;;;2.10;;
76727;SDS011;65652;53.132;18.026;2024-01-15T14:13:34;10.00;;;3.10;;
76727;SDS011;65652;53.132;18.026;2024-01-15T14:16:01;8.50;;;2.60;;
76727;SDS011;65652;53.132;18.026;2024-01-15T14:18:28;9.60;;;3.00;;
76727;SDS011;65652;53.132;18.026;2024-01-15T14:20:55;7.70;;;2.40;;
76727;SDS011;65652;53.132;18.026;2024-01-15T14:23:22;5.60;;;1.90;;
76727;SDS011;65652;53.132;18.026;2024-01-15T14:25:51;4.80;;;1.60;;
76727;SDS011;65652;53.132;18.026;2024-01-15T14:28:18;6.10;;;1.30;;
76727;SDS011;65652;53.132;18.026;2024-01-15T14:30:45;5.80;;;1.60;;
76727;SDS011;65652;53.132;18.026;2024-01-15T14:33:11;4.60;;;1.80;;
76727;SDS011;65652;53.132;18.026;2024-01-15T14:35:38;5.40;;;1.80;;
76727;SDS011;65652;53.132;18.026;2024-01-15T14:38:05;7.10;;;2.30;;
76727;SDS011;65652;53.132;18.026;2024-01-15T14:43:02;4.60;;;1.30;;
76727;SDS011;65652;53.132;18.026;2024-01-15T14:45:29;6.90;;;2.00;;
76727;SDS011;65652;53.132;18.026;2024-01-15T14:47:56;7.50;;;1.80;;
76727;SDS011;65652;53.132;18.026;2024-01-15T14:50:24;5.30;;;1.50;;
76727;SDS011;65652;53.132;18.026;2024-01-15T14:52:52;6.90;;;1.80;;
76727;SDS011;65652;53.132;18.026;2024-01-15T14:55:19;8.40;;;2.30;;
76727;SDS011;65652;53.132;18.026;2024-01-15T14:57:45;7.30;;;2.30;;